sensor_id;sensor_type;location;lat;lon;timestamp;temperature;humidity
28530;DHT22;15737;49.760;6.632;2023-02-15T00:00:04;0.30;99.90
28530;DHT22;15737;49.760;6.632;2023-02-15T00:02:31;0.30;99.90
28530;DHT22;15737;49.760;6.632;2023-02-15T00:04:56;0.40;99.90
28530;DHT22;15737;49.760;6.632;2023-02-15T00:07:22;0.50;99.90
28530;DHT22;15737;49.760;6.632;2023-02-15T00:09:48;0.70;99.90
28530;DHT22;15737;49.760;6.632;2023-02-15T00:12:14;1.00;99.90
28530;DHT22;15737;49.760;6.632;2023-02-15T00:14:39;1.00;99.90
28530;DHT22;15737;49.760;6.632;2023-02-15T00:17:05;0.90;99.90
28530;DHT22;15737;49.760;6.632;2023-02-15T00:19:31;0.70;99.90
28530;DHT22;15737;49.760;6.632;2023-02-15T00:21:56;0.50;99.90
28530;DHT22;15737;49.760;6.632;2023-02-15T00:24:22;0.40;99.90
28530;DHT22;15737;49.760;6.632;2023-02-15T00:26:48;0.30;99.90
28530;DHT22;15737;49.760;6.632;2023-02-15T00:29:16;0.30;99.90
28530;DHT22;15737;49.760;6.632;2023-02-15T00:31:42;0.40;99.90
28530;DHT22;15737;49.760;6.632;2023-02-15T00:34:10;0.30;99.90
28530;DHT22;15737;49.760;6.632;2023-02-15T00:36:36;0.40;99.90
28530;DHT22;15737;49.760;6.632;2023-02-15T00:39:02;0.50;99.90
28530;DHT22;15737;49.760;6.632;2023-02-15T00:41:28;0.50;99.90
28530;DHT22;15737;49.760;6.632;2023-02-15T00:43:53;0.60;99.90
28530;DHT22;15737;49.760;6.632;2023-02-15T00:46:19;0.60;99.90
28530;DHT22;15737;49.760;6.632;2023-02-15T00:48:44;0.70;99.90
28530;DHT22;15737;49.760;6.632;2023-02-15T00:51:10;0.60;99.90
28530;DHT22;15737;49.760;6.632;2023-02-15T00:53:35;0.50;99.90
28530;DHT22;15737;49.760;6.632;2023-02-15T00:56:01;0.40;99.90
28530;DHT22;15737;49.760;6.632;2023-02-15T00:58:26;0.20;99.90
28530;DHT22;15737;49.760;6.632;2023-02-15T01:00:52;0.10;99.90
28530;DHT22;15737;49.760;6.632;2023-02-15T01:03:19;0.00;99.90
28530;DHT22;15737;49.760;6.632;2023-02-15T01:05:47;0.10;99.90
28530;DHT22;15737;49.760;6.632;2023-02-15T01:08:13;0.30;99.90
28530;DHT22;15737;49.760;6.632;2023-02-15T01:10:39;0.40;99.90
28530;DHT22;15737;49.760;6.632;2023-02-15T01:13:05;0.20;99.90
28530;DHT22;15737;49.760;6.632;2023-02-15T01:15:31;0.00;99.90
28530;DHT22;15737;49.760;6.632;2023-02-15T01:17:58;-0.20;99.90
28530;DHT22;15737;49.760;6.632;2023-02-15T01:20:29;-0.30;99.90
28530;DHT22;15737;49.760;6.632;2023-02-15T01:22:56;-0.30;99.90
28530;DHT22;15737;49.760;6.632;2023-02-15T01:25:23;-0.30;99.90
28530;DHT22;15737;49.760;6.632;2023-02-15T01:27:49;-0.10;99.90
28530;DHT22;15737;49.760;6.632;2023-02-15T01:30:15;0.10;99.90
28530;DHT22;15737;49.760;6.632;2023-02-15T01:32:41;0.00;99.90
28530;DHT22;15737;49.760;6.632;2023-02-15T01:35:07;-0.20;99.90
28530;DHT22;15737;49.760;6.632;2023-02-15T01:37:34;-0.40;99.90
28530;DHT22;15737;49.760;6.632;2023-02-15T01:40:05;-0.40;99.90
28530;DHT22;15737;49.760;6.632;2023-02-15T01:42:32;-0.50;99.90
28530;DHT22;15737;49.760;6.632;2023-02-15T01:44:58;-0.50;99.90
28530;DHT22;15737;49.760;6.632;2023-02-15T01:47:46;-0.60;99.90
28530;DHT22;15737;49.760;6.632;2023-02-15T01:50:21;-0.60;99.90
28530;DHT22;15737;49.760;6.632;2023-02-15T01:53:03;-0.60;99.90
28530;DHT22;15737;49.760;6.632;2023-02-15T01:55:36;-0.70;99.90
28530;DHT22;15737;49.760;6.632;2023-02-15T01:58:04;-0.70;99.90
28530;DHT22;15737;49.760;6.632;2023-02-15T02:00:30;-0.70;99.90
28530;DHT22;15737;49.760;6.632;2023-02-15T02:02:57;-0.70;99.90
28530;DHT22;15737;49.760;6.632;2023-02-15T02:05:22;-0.80;99.90
28530;DHT22;15737;49.760;6.632;2023-02-15T02:07:49;-0.80;99.90
28530;DHT22;15737;49.760;6.632;2023-02-15T02:10:18;-0.80;99.90
28530;DHT22;15737;49.760;6.632;2023-02-15T02:12:47;-0.50;99.90
28530;DHT22;15737;49.760;6.632;2023-02-15T02:15:13;-0.30;99.90
28530;DHT22;15737;49.760;6.632;2023-02-15T02:20:42;0.10;99.90
28530;DHT22;15737;49.760;6.632;2023-02-15T02:23:22;0.10;99.90
28530;DHT22;15737;49.760;6.632;2023-02-15T02:34:22;-0.30;99.90
28530;DHT22;15737;49.760;6.632;2023-02-15T02:37:08;-0.30;99.90
28530;DHT22;15737;49.760;6.632;2023-02-15T02:39:54;0.00;99.90
28530;DHT22;15737;49.760;6.632;2023-02-15T02:42:41;0.30;99.90
28530;DHT22;15737;49.760;6.632;2023-02-15T02:45:13;0.40;99.90
28530;DHT22;15737;49.760;6.632;2023-02-15T02:47:48;0.50;99.90
28530;DHT22;15737;49.760;6.632;2023-02-15T02:50:21;0.50;99.90
28530;DHT22;15737;49.760;6.632;2023-02-15T02:52:49;0.40;99.90
28530;DHT22;15737;49.760;6.632;2023-02-15T02:58:45;0.20;99.90
28530;DHT22;15737;49.760;6.632;2023-02-15T03:00:57;0.30;99.90
28530;DHT22;15737;49.760;6.632;2023-02-15T03:03:45;0.40;99.90
28530;DHT22;15737;49.760;6.632;2023-02-15T03:06:27;0.40;99.90
28530;DHT22;15737;49.760;6.632;2023-02-15T03:09:15;0.30;99.90
28530;DHT22;15737;49.760;6.632;2023-02-15T03:11:43;0.30;99.90
28530;DHT22;15737;49.760;6.632;2023-02-15T03:14:10;0.30;99.90
28530;DHT22;15737;49.760;6.632;2023-02-15T03:16:39;0.10;99.90
28530;DHT22;15737;49.760;6.632;2023-02-15T03:19:53;-0.10;99.90
28530;DHT22;15737;49.760;6.632;2023-02-15T03:22:04;-0.20;99.90
28530;DHT22;15737;49.760;6.632;2023-02-15T03:24:37;-0.20;99.90
28530;DHT22;15737;49.760;6.632;2023-02-15T03:27:09;0.00;99.90
28530;DHT22;15737;49.760;6.632;2023-02-15T03:29:37;-0.20;99.90
28530;DHT22;15737;49.760;6.632;2023-02-15T03:32:07;-0.60;99.90
28530;DHT22;15737;49.760;6.632;2023-02-15T03:34:33;-0.90;99.90
28530;DHT22;15737;49.760;6.632;2023-02-15T03:37:13;-1.10;99.90
28530;DHT22;15737;49.760;6.632;2023-02-15T03:39:47;-1.30;99.90
28530;DHT22;15737;49.760;6.632;2023-02-15T03:42:25;-1.30;99.90
28530;DHT22;15737;49.760;6.632;2023-02-15T03:47:29;-1.10;99.90
28530;DHT22;15737;49.760;6.632;2023-02-15T03:52:53;-1.00;99.90
28530;DHT22;15737;49.760;6.632;2023-02-15T03:55:19;-1.00;99.90
28530;DHT22;15737;49.760;6.632;2023-02-15T03:57:45;-1.10;99.90
28530;DHT22;15737;49.760;6.632;2023-02-15T04:00:34;-1.00;99.90
28530;DHT22;15737;49.760;6.632;2023-02-15T04:03:23;-1.00;99.90
28530;DHT22;15737;49.760;6.632;2023-02-15T04:05:51;-1.10;99.90
28530;DHT22;15737;49.760;6.632;2023-02-15T04:08:17;-1.10;99.90
28530;DHT22;15737;49.760;6.632;2023-02-15T04:10:42;-1.10;99.90
28530;DHT22;15737;49.760;6.632;2023-02-15T04:13:29;-0.90;99.90
28530;DHT22;15737;49.760;6.632;2023-02-15T04:15:55;-0.50;99.90
28530;DHT22;15737;49.760;6.632;2023-02-15T04:21:18;0.10;99.90
28530;DHT22;15737;49.760;6.632;2023-02-15T04:24:03;0.40;99.90
28530;DHT22;15737;49.760;6.632;2023-02-15T04:26:48;0.60;99.90
28530;DHT22;15737;49.760;6.632;2023-02-15T04:29:15;0.70;99.90
28530;DHT22;15737;49.760;6.632;2023-02-15T04:31:40;0.80;99.90
28530;DHT22;15737;49.760;6.632;2023-02-15T04:34:06;0.80;99.90
28530;DHT22;15737;49.760;6.632;2023-02-15T04:36:31;0.70;99.90
28530;DHT22;15737;49.760;6.632;2023-02-15T04:38:57;0.60;99.90
28530;DHT22;15737;49.760;6.632;2023-02-15T04:41:22;0.60;99.90
28530;DHT22;15737;49.760;6.632;2023-02-15T04:43:48;0.60;99.90
28530;DHT22;15737;49.760;6.632;2023-02-15T04:46:13;0.80;99.90
28530;DHT22;15737;49.760;6.632;2023-02-15T04:48:39;0.90;99.90
28530;DHT22;15737;49.760;6.632;2023-02-15T04:51:06;0.90;99.90
28530;DHT22;15737;49.760;6.632;2023-02-15T04:53:32;0.80;99.90
28530;DHT22;15737;49.760;6.632;2023-02-15T04:55:58;0.80;99.90
28530;DHT22;15737;49.760;6.632;2023-02-15T04:58:23;0.60;99.90
28530;DHT22;15737;49.760;6.632;2023-02-15T05:00:49;0.70;99.90
28530;DHT22;15737;49.760;6.632;2023-02-15T05:03:14;0.80;99.90
28530;DHT22;15737;49.760;6.632;2023-02-15T05:05:40;0.80;99.90
28530;DHT22;15737;49.760;6.632;2023-02-15T05:08:05;0.90;99.90
28530;DHT22;15737;49.760;6.632;2023-02-15T05:10:31;1.00;99.90
28530;DHT22;15737;49.760;6.632;2023-02-15T05:12:56;0.80;99.90
28530;DHT22;15737;49.760;6.632;2023-02-15T05:15:22;0.60;99.90
28530;DHT22;15737;49.760;6.632;2023-02-15T05:17:47;0.40;99.90
28530;DHT22;15737;49.760;6.632;2023-02-15T05:20:13;0.30;99.90
28530;DHT22;15737;49.760;6.632;2023-02-15T05:22:39;0.20;99.90
28530;DHT22;15737;49.760;6.632;2023-02-15T05:27:36;0.20;99.90
28530;DHT22;15737;49.760;6.632;2023-02-15T05:30:20;0.20;99.90
28530;DHT22;15737;49.760;6.632;2023-02-15T05:32:46;0.10;99.90
28530;DHT22;15737;49.760;6.632;2023-02-15T05:35:14;0.10;99.90
28530;DHT22;15737;49.760;6.632;2023-02-15T05:37:40;0.20;99.90
28530;DHT22;15737;49.760;6.632;2023-02-15T05:40:06;0.20;99.90
28530;DHT22;15737;49.760;6.632;2023-02-15T05:42:32;0.00;99.90
28530;DHT22;15737;49.760;6.632;2023-02-15T05:44:57;0.00;99.90
28530;DHT22;15737;49.760;6.632;2023-02-15T05:47:23;0.30;99.90
28530;DHT22;15737;49.760;6.632;2023-02-15T05:49:48;0.40;99.90
28530;DHT22;15737;49.760;6.632;2023-02-15T05:52:14;0.50;99.90
28530;DHT22;15737;49.760;6.632;2023-02-15T05:54:39;0.50;99.90
28530;DHT22;15737;49.760;6.632;2023-02-15T05:57:05;0.30;99.90
28530;DHT22;15737;49.760;6.632;2023-02-15T05:59:30;0.20;99.90
28530;DHT22;15737;49.760;6.632;2023-02-15T06:01:56;0.30;99.90
28530;DHT22;15737;49.760;6.632;2023-02-15T06:04:21;0.60;99.90
28530;DHT22;15737;49.760;6.632;2023-02-15T06:06:47;1.00;99.90
28530;DHT22;15737;49.760;6.632;2023-02-15T06:09:13;1.10;99.90
28530;DHT22;15737;49.760;6.632;2023-02-15T06:11:38;1.20;99.90
28530;DHT22;15737;49.760;6.632;2023-02-15T06:14:04;1.00;99.90
28530;DHT22;15737;49.760;6.632;2023-02-15T06:16:29;1.00;99.90
28530;DHT22;15737;49.760;6.632;2023-02-15T06:18:55;1.20;99.90
28530;DHT22;15737;49.760;6.632;2023-02-15T06:21:21;1.40;99.90
28530;DHT22;15737;49.760;6.632;2023-02-15T06:23:46;1.40;99.90
28530;DHT22;15737;49.760;6.632;2023-02-15T06:26:12;1.40;99.90
28530;DHT22;15737;49.760;6.632;2023-02-15T06:28:37;1.30;99.90
28530;DHT22;15737;49.760;6.632;2023-02-15T06:31:03;1.10;99.90
28530;DHT22;15737;49.760;6.632;2023-02-15T06:33:29;1.00;99.90
28530;DHT22;15737;49.760;6.632;2023-02-15T06:35:55;0.90;99.90
28530;DHT22;15737;49.760;6.632;2023-02-15T06:38:22;0.60;99.90
28530;DHT22;15737;49.760;6.632;2023-02-15T06:40:47;0.40;99.90
28530;DHT22;15737;49.760;6.632;2023-02-15T06:43:13;0.30;99.90
28530;DHT22;15737;49.760;6.632;2023-02-15T06:45:38;0.20;99.90
28530;DHT22;15737;49.760;6.632;2023-02-15T06:48:04;0.40;99.90
28530;DHT22;15737;49.760;6.632;2023-02-15T06:50:32;0.40;99.90
28530;DHT22;15737;49.760;6.632;2023-02-15T06:52:58;0.40;99.90
28530;DHT22;15737;49.760;6.632;2023-02-15T06:55:24;0.50;99.90
28530;DHT22;15737;49.760;6.632;2023-02-15T07:00:18;0.80;99.90
28530;DHT22;15737;49.760;6.632;2023-02-15T07:02:44;1.00;99.90
28530;DHT22;15737;49.760;6.632;2023-02-15T07:05:09;1.20;99.90
28530;DHT22;15737;49.760;6.632;2023-02-15T07:07:35;1.20;99.90
28530;DHT22;15737;49.760;6.632;2023-02-15T07:10:01;1.40;99.90
28530;DHT22;15737;49.760;6.632;2023-02-15T07:12:26;1.50;99.90
28530;DHT22;15737;49.760;6.632;2023-02-15T07:15:08;1.50;99.90
28530;DHT22;15737;49.760;6.632;2023-02-15T07:17:35;1.60;99.90
28530;DHT22;15737;49.760;6.632;2023-02-15T07:20:06;1.70;99.90
28530;DHT22;15737;49.760;6.632;2023-02-15T07:22:33;1.80;99.90
28530;DHT22;15737;49.760;6.632;2023-02-15T07:25:02;1.80;99.90
28530;DHT22;15737;49.760;6.632;2023-02-15T07:27:27;1.90;99.90
28530;DHT22;15737;49.760;6.632;2023-02-15T07:29:53;2.00;99.90
28530;DHT22;15737;49.760;6.632;2023-02-15T07:32:18;2.00;99.90
28530;DHT22;15737;49.760;6.632;2023-02-15T07:34:44;2.00;99.90
28530;DHT22;15737;49.760;6.632;2023-02-15T07:37:09;2.00;99.90
28530;DHT22;15737;49.760;6.632;2023-02-15T07:39:35;2.00;99.90
28530;DHT22;15737;49.760;6.632;2023-02-15T07:42:00;2.10;99.90
28530;DHT22;15737;49.760;6.632;2023-02-15T07:44:26;2.20;99.90
28530;DHT22;15737;49.760;6.632;2023-02-15T07:46:52;2.30;99.90
28530;DHT22;15737;49.760;6.632;2023-02-15T07:49:17;2.20;99.90
28530;DHT22;15737;49.760;6.632;2023-02-15T07:51:43;2.20;99.90
28530;DHT22;15737;49.760;6.632;2023-02-15T07:54:08;1.90;99.90
28530;DHT22;15737;49.760;6.632;2023-02-15T07:56:34;1.50;99.90
28530;DHT22;15737;49.760;6.632;2023-02-15T07:58:59;1.20;99.90
28530;DHT22;15737;49.760;6.632;2023-02-15T08:01:34;1.20;99.90
28530;DHT22;15737;49.760;6.632;2023-02-15T08:04:00;1.10;99.90
28530;DHT22;15737;49.760;6.632;2023-02-15T08:06:29;1.10;99.90
28530;DHT22;15737;49.760;6.632;2023-02-15T08:08:55;1.30;99.90
28530;DHT22;15737;49.760;6.632;2023-02-15T08:11:23;1.70;99.90
28530;DHT22;15737;49.760;6.632;2023-02-15T08:13:53;1.80;99.90
28530;DHT22;15737;49.760;6.632;2023-02-15T08:16:39;1.80;99.90
28530;DHT22;15737;49.760;6.632;2023-02-15T08:21:34;2.00;99.90
28530;DHT22;15737;49.760;6.632;2023-02-15T08:24:00;2.50;99.90
28530;DHT22;15737;49.760;6.632;2023-02-15T08:26:26;2.70;99.90
28530;DHT22;15737;49.760;6.632;2023-02-15T08:28:53;2.60;99.90
28530;DHT22;15737;49.760;6.632;2023-02-15T08:31:19;2.50;99.90
28530;DHT22;15737;49.760;6.632;2023-02-15T08:33:46;2.30;99.90
28530;DHT22;15737;49.760;6.632;2023-02-15T08:36:14;2.20;99.90
28530;DHT22;15737;49.760;6.632;2023-02-15T08:38:40;2.30;99.90
28530;DHT22;15737;49.760;6.632;2023-02-15T08:41:24;2.50;99.90
28530;DHT22;15737;49.760;6.632;2023-02-15T08:43:52;2.30;99.90
28530;DHT22;15737;49.760;6.632;2023-02-15T08:46:20;2.00;99.90
28530;DHT22;15737;49.760;6.632;2023-02-15T08:48:46;1.60;99.90
28530;DHT22;15737;49.760;6.632;2023-02-15T08:51:20;1.50;99.90
28530;DHT22;15737;49.760;6.632;2023-02-15T08:53:48;1.50;99.90
28530;DHT22;15737;49.760;6.632;2023-02-15T08:56:18;1.40;99.90
28530;DHT22;15737;49.760;6.632;2023-02-15T08:58:44;1.60;99.90
28530;DHT22;15737;49.760;6.632;2023-02-15T09:01:12;1.50;99.90
28530;DHT22;15737;49.760;6.632;2023-02-15T09:03:38;1.40;99.90
28530;DHT22;15737;49.760;6.632;2023-02-15T09:06:05;1.20;99.90
28530;DHT22;15737;49.760;6.632;2023-02-15T09:08:31;1.00;99.90
28530;DHT22;15737;49.760;6.632;2023-02-15T09:11:10;1.00;99.90
28530;DHT22;15737;49.760;6.632;2023-02-15T09:13:37;1.10;99.90
28530;DHT22;15737;49.760;6.632;2023-02-15T09:16:05;1.10;99.90
28530;DHT22;15737;49.760;6.632;2023-02-15T09:18:33;1.30;99.90
28530;DHT22;15737;49.760;6.632;2023-02-15T09:21:09;1.40;99.90
28530;DHT22;15737;49.760;6.632;2023-02-15T09:23:36;1.50;99.90
28530;DHT22;15737;49.760;6.632;2023-02-15T09:26:03;1.50;99.90
28530;DHT22;15737;49.760;6.632;2023-02-15T09:28:29;1.50;99.90
28530;DHT22;15737;49.760;6.632;2023-02-15T09:30:54;1.70;99.90
28530;DHT22;15737;49.760;6.632;2023-02-15T09:33:20;1.70;99.90
28530;DHT22;15737;49.760;6.632;2023-02-15T09:35:47;1.80;99.90
28530;DHT22;15737;49.760;6.632;2023-02-15T09:38:12;2.00;99.90
28530;DHT22;15737;49.760;6.632;2023-02-15T09:40:46;2.30;99.90
28530;DHT22;15737;49.760;6.632;2023-02-15T09:43:30;2.20;99.90
28530;DHT22;15737;49.760;6.632;2023-02-15T09:49:49;2.00;99.90
28530;DHT22;15737;49.760;6.632;2023-02-15T09:52:41;2.00;99.90
28530;DHT22;15737;49.760;6.632;2023-02-15T09:57:58;1.90;99.90
28530;DHT22;15737;49.760;6.632;2023-02-15T10:06:14;2.10;99.90
28530;DHT22;15737;49.760;6.632;2023-02-15T10:14:53;2.80;99.90
28530;DHT22;15737;49.760;6.632;2023-02-15T10:20:38;2.70;99.90
28530;DHT22;15737;49.760;6.632;2023-02-15T10:25:47;3.10;99.90
28530;DHT22;15737;49.760;6.632;2023-02-15T10:28:20;3.50;99.90
28530;DHT22;15737;49.760;6.632;2023-02-15T10:30:53;3.70;99.90
28530;DHT22;15737;49.760;6.632;2023-02-15T10:34:09;3.80;99.90
28530;DHT22;15737;49.760;6.632;2023-02-15T10:40:29;4.20;99.90
28530;DHT22;15737;49.760;6.632;2023-02-15T10:46:11;5.40;99.90
28530;DHT22;15737;49.760;6.632;2023-02-15T10:51:51;8.70;99.90
28530;DHT22;15737;49.760;6.632;2023-02-15T10:54:38;9.60;99.90
28530;DHT22;15737;49.760;6.632;2023-02-15T11:00:07;11.00;99.90
28530;DHT22;15737;49.760;6.632;2023-02-15T11:05:59;12.90;99.90
28530;DHT22;15737;49.760;6.632;2023-02-15T11:08:29;13.30;99.90
28530;DHT22;15737;49.760;6.632;2023-02-15T11:11:21;13.80;99.90
28530;DHT22;15737;49.760;6.632;2023-02-15T11:13:51;13.70;99.90
28530;DHT22;15737;49.760;6.632;2023-02-15T11:16:24;13.40;99.90
28530;DHT22;15737;49.760;6.632;2023-02-15T11:18:58;13.40;99.90
28530;DHT22;15737;49.760;6.632;2023-02-15T11:21:31;13.70;99.90
28530;DHT22;15737;49.760;6.632;2023-02-15T11:24:10;14.20;99.90
28530;DHT22;15737;49.760;6.632;2023-02-15T11:26:43;14.30;99.90
28530;DHT22;15737;49.760;6.632;2023-02-15T11:29:22;14.30;99.90
28530;DHT22;15737;49.760;6.632;2023-02-15T11:31:56;14.60;99.90
28530;DHT22;15737;49.760;6.632;2023-02-15T11:34:38;14.80;99.90
28530;DHT22;15737;49.760;6.632;2023-02-15T11:37:08;15.30;99.90
28530;DHT22;15737;49.760;6.632;2023-02-15T11:39:35;15.40;99.90
28530;DHT22;15737;49.760;6.632;2023-02-15T11:42:09;15.70;99.90
28530;DHT22;15737;49.760;6.632;2023-02-15T11:44:44;15.30;99.90
28530;DHT22;15737;49.760;6.632;2023-02-15T11:47:12;14.60;99.90
28530;DHT22;15737;49.760;6.632;2023-02-15T11:49:38;14.20;99.90
28530;DHT22;15737;49.760;6.632;2023-02-15T11:52:11;13.70;99.90
28530;DHT22;15737;49.760;6.632;2023-02-15T11:54:45;13.30;99.90
28530;DHT22;15737;49.760;6.632;2023-02-15T11:57:19;13.80;99.90
28530;DHT22;15737;49.760;6.632;2023-02-15T11:59:56;13.80;99.90
28530;DHT22;15737;49.760;6.632;2023-02-15T12:02:23;13.60;99.90
28530;DHT22;15737;49.760;6.632;2023-02-15T12:05:03;13.80;99.90
28530;DHT22;15737;49.760;6.632;2023-02-15T12:07:37;14.00;99.90
28530;DHT22;15737;49.760;6.632;2023-02-15T12:10:32;14.10;99.90
28530;DHT22;15737;49.760;6.632;2023-02-15T12:13:12;14.00;99.90
28530;DHT22;15737;49.760;6.632;2023-02-15T12:15:42;14.00;99.90
28530;DHT22;15737;49.760;6.632;2023-02-15T12:18:41;14.30;99.90
28530;DHT22;15737;49.760;6.632;2023-02-15T12:21:10;14.80;99.90
28530;DHT22;15737;49.760;6.632;2023-02-15T12:23:47;15.30;98.70
28530;DHT22;15737;49.760;6.632;2023-02-15T12:26:14;15.80;98.50
28530;DHT22;15737;49.760;6.632;2023-02-15T12:28:49;16.10;98.10
28530;DHT22;15737;49.760;6.632;2023-02-15T12:31:36;16.00;97.40
28530;DHT22;15737;49.760;6.632;2023-02-15T12:34:11;15.60;97.20
28530;DHT22;15737;49.760;6.632;2023-02-15T12:36:46;15.00;96.90
28530;DHT22;15737;49.760;6.632;2023-02-15T12:39:19;14.90;96.90
28530;DHT22;15737;49.760;6.632;2023-02-15T12:44:26;14.10;96.90
28530;DHT22;15737;49.760;6.632;2023-02-15T12:47:05;13.60;96.70
28530;DHT22;15737;49.760;6.632;2023-02-15T12:49:33;13.30;97.00
28530;DHT22;15737;49.760;6.632;2023-02-15T12:54:46;12.90;96.80
28530;DHT22;15737;49.760;6.632;2023-02-15T13:00:06;13.10;97.20
28530;DHT22;15737;49.760;6.632;2023-02-15T13:02:41;13.70;96.30
28530;DHT22;15737;49.760;6.632;2023-02-15T13:05:21;13.80;96.10
28530;DHT22;15737;49.760;6.632;2023-02-15T13:07:53;13.90;96.00
28530;DHT22;15737;49.760;6.632;2023-02-15T13:10:25;14.00;95.90
28530;DHT22;15737;49.760;6.632;2023-02-15T13:12:52;14.10;96.00
28530;DHT22;15737;49.760;6.632;2023-02-15T13:15:34;14.80;95.30
28530;DHT22;15737;49.760;6.632;2023-02-15T13:18:01;14.90;94.80
28530;DHT22;15737;49.760;6.632;2023-02-15T13:20:28;14.90;94.90
28530;DHT22;15737;49.760;6.632;2023-02-15T13:23:00;15.00;94.70
28530;DHT22;15737;49.760;6.632;2023-02-15T13:25:29;15.00;94.90
28530;DHT22;15737;49.760;6.632;2023-02-15T13:27:59;14.90;94.80
28530;DHT22;15737;49.760;6.632;2023-02-15T13:30:49;14.80;94.70
28530;DHT22;15737;49.760;6.632;2023-02-15T13:33:31;14.60;94.70
28530;DHT22;15737;49.760;6.632;2023-02-15T13:38:59;16.10;93.30
28530;DHT22;15737;49.760;6.632;2023-02-15T13:48:40;16.70;90.40
28530;DHT22;15737;49.760;6.632;2023-02-15T13:56:05;15.70;90.20
28530;DHT22;15737;49.760;6.632;2023-02-15T14:04:52;13.80;90.90
28530;DHT22;15737;49.760;6.632;2023-02-15T14:07:43;13.60;91.70
28530;DHT22;15737;49.760;6.632;2023-02-15T14:13:29;13.10;91.80
28530;DHT22;15737;49.760;6.632;2023-02-15T14:19:16;13.10;92.30
28530;DHT22;15737;49.760;6.632;2023-02-15T14:22:15;13.30;92.40
28530;DHT22;15737;49.760;6.632;2023-02-15T14:24:59;13.30;91.80
28530;DHT22;15737;49.760;6.632;2023-02-15T14:27:51;13.30;92.10
28530;DHT22;15737;49.760;6.632;2023-02-15T14:30:26;12.90;92.10
28530;DHT22;15737;49.760;6.632;2023-02-15T14:32:59;12.40;92.80
28530;DHT22;15737;49.760;6.632;2023-02-15T14:35:28;12.30;93.40
28530;DHT22;15737;49.760;6.632;2023-02-15T14:38:11;12.70;93.20
28530;DHT22;15737;49.760;6.632;2023-02-15T14:40:54;13.10;93.00
28530;DHT22;15737;49.760;6.632;2023-02-15T14:46:30;13.50;92.30
28530;DHT22;15737;49.760;6.632;2023-02-15T14:49:23;13.50;92.80
28530;DHT22;15737;49.760;6.632;2023-02-15T14:56:45;14.20;92.50
28530;DHT22;15737;49.760;6.632;2023-02-15T15:01:37;14.50;92.30
28530;DHT22;15737;49.760;6.632;2023-02-15T15:04:12;14.50;91.90
28530;DHT22;15737;49.760;6.632;2023-02-15T15:06:42;14.20;91.90
28530;DHT22;15737;49.760;6.632;2023-02-15T15:09:21;14.00;92.40
28530;DHT22;15737;49.760;6.632;2023-02-15T15:11:51;14.20;92.40
28530;DHT22;15737;49.760;6.632;2023-02-15T15:16:59;14.40;92.00
28530;DHT22;15737;49.760;6.632;2023-02-15T15:22:21;14.10;91.80
28530;DHT22;15737;49.760;6.632;2023-02-15T15:25:10;13.80;91.90
28530;DHT22;15737;49.760;6.632;2023-02-15T15:41:25;13.00;93.30
28530;DHT22;15737;49.760;6.632;2023-02-15T15:47:22;12.10;94.00
28530;DHT22;15737;49.760;6.632;2023-02-15T15:49:55;11.50;94.60
28530;DHT22;15737;49.760;6.632;2023-02-15T15:52:22;11.20;95.10
28530;DHT22;15737;49.760;6.632;2023-02-15T15:54:51;10.90;95.50
28530;DHT22;15737;49.760;6.632;2023-02-15T15:59:49;10.60;96.00
28530;DHT22;15737;49.760;6.632;2023-02-15T16:02:16;10.40;96.40
28530;DHT22;15737;49.760;6.632;2023-02-15T16:04:43;10.20;96.90
28530;DHT22;15737;49.760;6.632;2023-02-15T16:10:01;9.90;98.00
28530;DHT22;15737;49.760;6.632;2023-02-15T16:12:34;9.80;98.50
28530;DHT22;15737;49.760;6.632;2023-02-15T16:18:18;9.50;99.50
28530;DHT22;15737;49.760;6.632;2023-02-15T16:20:52;9.30;99.90
28530;DHT22;15737;49.760;6.632;2023-02-15T16:26:34;8.70;99.90
28530;DHT22;15737;49.760;6.632;2023-02-15T16:29:17;8.50;99.90
28530;DHT22;15737;49.760;6.632;2023-02-15T16:31:57;8.20;99.90
28530;DHT22;15737;49.760;6.632;2023-02-15T16:34:23;7.90;99.90
28530;DHT22;15737;49.760;6.632;2023-02-15T16:36:48;7.80;99.90
28530;DHT22;15737;49.760;6.632;2023-02-15T16:39:19;7.60;99.90
28530;DHT22;15737;49.760;6.632;2023-02-15T16:41:45;7.50;99.90
28530;DHT22;15737;49.760;6.632;2023-02-15T16:44:17;7.30;99.90
28530;DHT22;15737;49.760;6.632;2023-02-15T16:46:46;7.20;99.90
28530;DHT22;15737;49.760;6.632;2023-02-15T16:49:26;7.20;99.90
28530;DHT22;15737;49.760;6.632;2023-02-15T16:51:58;7.00;99.90
28530;DHT22;15737;49.760;6.632;2023-02-15T16:54:25;6.90;99.90
28530;DHT22;15737;49.760;6.632;2023-02-15T16:56:52;6.80;99.90
28530;DHT22;15737;49.760;6.632;2023-02-15T16:59:31;6.80;99.90
28530;DHT22;15737;49.760;6.632;2023-02-15T17:01:58;6.70;99.90
28530;DHT22;15737;49.760;6.632;2023-02-15T17:04:29;6.70;99.90
28530;DHT22;15737;49.760;6.632;2023-02-15T17:07:14;6.60;99.90
28530;DHT22;15737;49.760;6.632;2023-02-15T17:09:50;6.40;99.90
28530;DHT22;15737;49.760;6.632;2023-02-15T17:12:45;6.30;99.90
28530;DHT22;15737;49.760;6.632;2023-02-15T17:15:31;6.20;99.90
28530;DHT22;15737;49.760;6.632;2023-02-15T17:18:01;6.10;99.90
28530;DHT22;15737;49.760;6.632;2023-02-15T17:20:28;5.90;99.90
28530;DHT22;15737;49.760;6.632;2023-02-15T17:22:54;5.80;99.90
28530;DHT22;15737;49.760;6.632;2023-02-15T17:25:25;5.70;99.90
28530;DHT22;15737;49.760;6.632;2023-02-15T17:27:55;5.80;99.90
28530;DHT22;15737;49.760;6.632;2023-02-15T17:30:28;5.80;99.90
28530;DHT22;15737;49.760;6.632;2023-02-15T17:32:57;5.80;99.90
28530;DHT22;15737;49.760;6.632;2023-02-15T17:35:26;5.80;99.90
28530;DHT22;15737;49.760;6.632;2023-02-15T17:38:01;5.80;99.90
28530;DHT22;15737;49.760;6.632;2023-02-15T17:40:29;5.70;99.90
28530;DHT22;15737;49.760;6.632;2023-02-15T17:42:56;5.60;99.90
28530;DHT22;15737;49.760;6.632;2023-02-15T17:45:22;5.50;99.90
28530;DHT22;15737;49.760;6.632;2023-02-15T17:47:50;5.50;99.90
28530;DHT22;15737;49.760;6.632;2023-02-15T17:50:22;5.40;99.90
28530;DHT22;15737;49.760;6.632;2023-02-15T17:52:47;5.40;99.90
28530;DHT22;15737;49.760;6.632;2023-02-15T17:55:15;5.40;99.90
28530;DHT22;15737;49.760;6.632;2023-02-15T17:58:00;5.30;99.90
28530;DHT22;15737;49.760;6.632;2023-02-15T18:00:26;5.30;99.90
28530;DHT22;15737;49.760;6.632;2023-02-15T18:03:11;5.30;99.90
28530;DHT22;15737;49.760;6.632;2023-02-15T18:05:56;5.20;99.90
28530;DHT22;15737;49.760;6.632;2023-02-15T18:08:40;5.20;99.90
28530;DHT22;15737;49.760;6.632;2023-02-15T18:11:24;5.10;99.90
28530;DHT22;15737;49.760;6.632;2023-02-15T18:14:00;5.10;99.90
28530;DHT22;15737;49.760;6.632;2023-02-15T18:16:29;5.10;99.90
28530;DHT22;15737;49.760;6.632;2023-02-15T18:18:55;5.10;99.90
28530;DHT22;15737;49.760;6.632;2023-02-15T18:21:22;5.00;99.90
28530;DHT22;15737;49.760;6.632;2023-02-15T18:23:48;5.00;99.90
28530;DHT22;15737;49.760;6.632;2023-02-15T18:26:24;5.00;99.90
28530;DHT22;15737;49.760;6.632;2023-02-15T18:28:51;4.90;99.90
28530;DHT22;15737;49.760;6.632;2023-02-15T18:31:17;4.80;99.90
28530;DHT22;15737;49.760;6.632;2023-02-15T18:33:48;4.70;99.90